sensor_id;sensor_type;location;lat;lon;timestamp;temperature;humidity
70807;DHT22;58882;52.170;5.386;2022-12-07T00:01:37;13.60;50.80
70807;DHT22;58882;52.170;5.386;2022-12-07T00:04:25;13.60;50.80
70807;DHT22;58882;52.170;5.386;2022-12-07T00:07:05;13.60;51.00
70807;DHT22;58882;52.170;5.386;2022-12-07T00:10:05;13.50;51.00
70807;DHT22;58882;52.170;5.386;2022-12-07T00:12:46;13.50;51.10
70807;DHT22;58882;52.170;5.386;2022-12-07T00:15:33;13.50;50.90
70807;DHT22;58882;52.170;5.386;2022-12-07T00:18:14;13.50;51.10
70807;DHT22;58882;52.170;5.386;2022-12-07T00:21:21;13.50;51.00
70807;DHT22;58882;52.170;5.386;2022-12-07T00:24:10;13.50;51.10
70807;DHT22;58882;52.170;5.386;2022-12-07T00:26:50;13.50;51.20
70807;DHT22;58882;52.170;5.386;2022-12-07T00:29:38;13.40;51.10
70807;DHT22;58882;52.170;5.386;2022-12-07T00:32:11;13.40;52.20
70807;DHT22;58882;52.170;5.386;2022-12-07T00:35:05;13.40;51.30
70807;DHT22;58882;52.170;5.386;2022-12-07T00:37:45;13.40;51.30
70807;DHT22;58882;52.170;5.386;2022-12-07T00:40:39;13.40;51.30
70807;DHT22;58882;52.170;5.386;2022-12-07T00:43:12;13.40;51.40
70807;DHT22;58882;52.170;5.386;2022-12-07T00:46:06;13.30;51.40
70807;DHT22;58882;52.170;5.386;2022-12-07T00:48:48;13.30;51.50
70807;DHT22;58882;52.170;5.386;2022-12-07T00:51:42;13.30;51.40
70807;DHT22;58882;52.170;5.386;2022-12-07T00:54:22;13.30;51.40
70807;DHT22;58882;52.170;5.386;2022-12-07T00:57:09;13.30;51.30
70807;DHT22;58882;52.170;5.386;2022-12-07T00:59:42;13.30;51.40
70807;DHT22;58882;52.170;5.386;2022-12-07T01:02:36;13.30;51.30
70807;DHT22;58882;52.170;5.386;2022-12-07T01:05:09;13.30;51.30
70807;DHT22;58882;52.170;5.386;2022-12-07T01:08:03;13.30;51.30
70807;DHT22;58882;52.170;5.386;2022-12-07T01:10:44;13.20;51.20
70807;DHT22;58882;52.170;5.386;2022-12-07T01:13:31;13.20;51.20
70807;DHT22;58882;52.170;5.386;2022-12-07T01:16:14;13.20;51.10
70807;DHT22;58882;52.170;5.386;2022-12-07T01:19:08;13.20;51.10
70807;DHT22;58882;52.170;5.386;2022-12-07T01:21:41;13.20;51.20
70807;DHT22;58882;52.170;5.386;2022-12-07T01:24:35;13.10;51.20
70807;DHT22;58882;52.170;5.386;2022-12-07T01:27:15;13.20;51.30
70807;DHT22;58882;52.170;5.386;2022-12-07T01:30:03;13.10;51.30
70807;DHT22;58882;52.170;5.386;2022-12-07T01:32:37;13.10;51.30
70807;DHT22;58882;52.170;5.386;2022-12-07T01:35:33;13.10;51.20
70807;DHT22;58882;52.170;5.386;2022-12-07T01:38:13;13.00;51.10
70807;DHT22;58882;52.170;5.386;2022-12-07T01:41:01;13.00;51.10
70807;DHT22;58882;52.170;5.386;2022-12-07T01:47:03;13.00;51.20
70807;DHT22;58882;52.170;5.386;2022-12-07T01:49:46;13.00;51.10
70807;DHT22;58882;52.170;5.386;2022-12-07T01:52:41;13.00;51.10
70807;DHT22;58882;52.170;5.386;2022-12-07T01:55:16;13.00;51.00
70807;DHT22;58882;52.170;5.386;2022-12-07T01:58:11;13.00;52.00
70807;DHT22;58882;52.170;5.386;2022-12-07T02:00:45;12.90;51.00
70807;DHT22;58882;52.170;5.386;2022-12-07T02:03:43;12.90;51.00
70807;DHT22;58882;52.170;5.386;2022-12-07T02:06:24;12.90;51.90
70807;DHT22;58882;52.170;5.386;2022-12-07T02:09:12;12.90;50.90
70807;DHT22;58882;52.170;5.386;2022-12-07T02:11:52;12.90;51.00
70807;DHT22;58882;52.170;5.386;2022-12-07T02:14:47;12.90;50.90
70807;DHT22;58882;52.170;5.386;2022-12-07T02:17:52;12.90;50.90
70807;DHT22;58882;52.170;5.386;2022-12-07T02:30:10;12.80;51.00
70807;DHT22;58882;52.170;5.386;2022-12-07T02:33:05;12.70;51.00
70807;DHT22;58882;52.170;5.386;2022-12-07T02:36:04;12.70;51.10
70807;DHT22;58882;52.170;5.386;2022-12-07T02:38:58;12.70;51.20
70807;DHT22;58882;52.170;5.386;2022-12-07T02:41:44;12.70;51.30
70807;DHT22;58882;52.170;5.386;2022-12-07T02:44:33;12.70;51.30
70807;DHT22;58882;52.170;5.386;2022-12-07T02:47:16;12.70;51.60
70807;DHT22;58882;52.170;5.386;2022-12-07T02:50:06;12.80;51.60
70807;DHT22;58882;52.170;5.386;2022-12-07T02:52:46;12.80;51.50
70807;DHT22;58882;52.170;5.386;2022-12-07T02:55:39;12.90;51.30
70807;DHT22;58882;52.170;5.386;2022-12-07T02:58:28;12.90;51.40
70807;DHT22;58882;52.170;5.386;2022-12-07T03:07:51;13.00;51.10
70807;DHT22;58882;52.170;5.386;2022-12-07T03:10:56;13.00;51.10
70807;DHT22;58882;52.170;5.386;2022-12-07T03:14:15;13.00;51.10
70807;DHT22;58882;52.170;5.386;2022-12-07T03:17:00;13.00;51.20
70807;DHT22;58882;52.170;5.386;2022-12-07T03:20:00;13.00;51.20
70807;DHT22;58882;52.170;5.386;2022-12-07T03:22:38;13.00;51.20
70807;DHT22;58882;52.170;5.386;2022-12-07T03:25:35;13.00;51.10
70807;DHT22;58882;52.170;5.386;2022-12-07T03:28:18;13.00;51.00
70807;DHT22;58882;52.170;5.386;2022-12-07T03:31:17;13.00;51.00
70807;DHT22;58882;52.170;5.386;2022-12-07T03:34:03;13.10;51.20
70807;DHT22;58882;52.170;5.386;2022-12-07T03:37:51;13.10;51.60
70807;DHT22;58882;52.170;5.386;2022-12-07T03:40:33;13.10;51.10
70807;DHT22;58882;52.170;5.386;2022-12-07T03:43:29;13.10;51.10
70807;DHT22;58882;52.170;5.386;2022-12-07T03:49:56;13.20;51.00
70807;DHT22;58882;52.170;5.386;2022-12-07T03:55:42;13.20;50.90
70807;DHT22;58882;52.170;5.386;2022-12-07T03:58:24;13.20;50.80
70807;DHT22;58882;52.170;5.386;2022-12-07T04:01:12;13.20;50.70
70807;DHT22;58882;52.170;5.386;2022-12-07T04:03:52;13.10;50.60
70807;DHT22;58882;52.170;5.386;2022-12-07T04:06:39;13.20;50.70
70807;DHT22;58882;52.170;5.386;2022-12-07T04:09:19;13.10;50.70
70807;DHT22;58882;52.170;5.386;2022-12-07T04:12:07;13.10;50.90
70807;DHT22;58882;52.170;5.386;2022-12-07T04:14:47;13.10;50.90
70807;DHT22;58882;52.170;5.386;2022-12-07T04:17:34;13.10;50.90
70807;DHT22;58882;52.170;5.386;2022-12-07T04:20:14;13.10;51.90
70807;DHT22;58882;52.170;5.386;2022-12-07T04:23:01;13.20;51.00
70807;DHT22;58882;52.170;5.386;2022-12-07T04:25:55;13.20;50.80
70807;DHT22;58882;52.170;5.386;2022-12-07T04:28:28;13.20;50.80
70807;DHT22;58882;52.170;5.386;2022-12-07T04:31:22;13.20;50.80
70807;DHT22;58882;52.170;5.386;2022-12-07T04:33:55;13.20;50.70
70807;DHT22;58882;52.170;5.386;2022-12-07T04:36:49;13.20;50.70
70807;DHT22;58882;52.170;5.386;2022-12-07T04:42:18;13.20;50.90
70807;DHT22;58882;52.170;5.386;2022-12-07T04:44:58;13.20;50.70
70807;DHT22;58882;52.170;5.386;2022-12-07T04:47:52;13.20;50.70
70807;DHT22;58882;52.170;5.386;2022-12-07T04:50:32;13.20;50.50
70807;DHT22;58882;52.170;5.386;2022-12-07T04:53:26;13.20;50.50
70807;DHT22;58882;52.170;5.386;2022-12-07T04:56:06;13.20;50.60
70807;DHT22;58882;52.170;5.386;2022-12-07T04:58:54;13.20;50.50
70807;DHT22;58882;52.170;5.386;2022-12-07T05:01:34;13.20;50.50
70807;DHT22;58882;52.170;5.386;2022-12-07T05:04:28;13.20;50.50
70807;DHT22;58882;52.170;5.386;2022-12-07T05:07:01;13.20;50.40
70807;DHT22;58882;52.170;5.386;2022-12-07T05:09:55;13.20;50.40
70807;DHT22;58882;52.170;5.386;2022-12-07T05:12:35;13.20;50.40
70807;DHT22;58882;52.170;5.386;2022-12-07T05:15:22;13.20;50.40
70807;DHT22;58882;52.170;5.386;2022-12-07T05:18:02;13.20;50.30
70807;DHT22;58882;52.170;5.386;2022-12-07T05:20:49;13.20;50.10
70807;DHT22;58882;52.170;5.386;2022-12-07T05:23:31;13.20;50.00
70807;DHT22;58882;52.170;5.386;2022-12-07T05:26:25;13.20;49.90
70807;DHT22;58882;52.170;5.386;2022-12-07T05:29:05;13.10;50.00
70807;DHT22;58882;52.170;5.386;2022-12-07T05:31:59;13.10;50.10
70807;DHT22;58882;52.170;5.386;2022-12-07T05:34:39;13.10;50.10
70807;DHT22;58882;52.170;5.386;2022-12-07T05:37:26;13.20;50.10
70807;DHT22;58882;52.170;5.386;2022-12-07T05:39:59;13.10;50.00
70807;DHT22;58882;52.170;5.386;2022-12-07T05:42:53;13.10;49.90
70807;DHT22;58882;52.170;5.386;2022-12-07T05:45:26;13.10;49.80
70807;DHT22;58882;52.170;5.386;2022-12-07T05:48:20;13.10;49.80
70807;DHT22;58882;52.170;5.386;2022-12-07T05:50:53;13.10;49.80
70807;DHT22;58882;52.170;5.386;2022-12-07T05:53:47;13.10;49.90
70807;DHT22;58882;52.170;5.386;2022-12-07T05:56:27;13.10;49.80
70807;DHT22;58882;52.170;5.386;2022-12-07T05:59:21;13.10;49.80
70807;DHT22;58882;52.170;5.386;2022-12-07T06:02:08;13.10;49.90
70807;DHT22;58882;52.170;5.386;2022-12-07T06:05:03;13.10;49.60
70807;DHT22;58882;52.170;5.386;2022-12-07T06:07:43;13.10;49.80
70807;DHT22;58882;52.170;5.386;2022-12-07T06:10:30;13.10;49.70
70807;DHT22;58882;52.170;5.386;2022-12-07T06:13:10;13.10;49.70
70807;DHT22;58882;52.170;5.386;2022-12-07T06:16:04;13.10;50.00
70807;DHT22;58882;52.170;5.386;2022-12-07T06:18:38;13.10;50.30
70807;DHT22;58882;52.170;5.386;2022-12-07T06:21:32;13.20;50.30
70807;DHT22;58882;52.170;5.386;2022-12-07T06:24:14;13.30;50.10
70807;DHT22;58882;52.170;5.386;2022-12-07T06:27:08;13.40;50.00
70807;DHT22;58882;52.170;5.386;2022-12-07T06:29:42;13.50;49.60
70807;DHT22;58882;52.170;5.386;2022-12-07T06:32:36;13.60;49.40
70807;DHT22;58882;52.170;5.386;2022-12-07T06:35:10;13.70;49.20
70807;DHT22;58882;52.170;5.386;2022-12-07T06:38:04;13.80;49.00
70807;DHT22;58882;52.170;5.386;2022-12-07T06:40:44;13.80;49.70
70807;DHT22;58882;52.170;5.386;2022-12-07T06:43:31;13.90;48.50
70807;DHT22;58882;52.170;5.386;2022-12-07T06:46:11;13.90;48.30
70807;DHT22;58882;52.170;5.386;2022-12-07T06:48:58;14.00;48.20
70807;DHT22;58882;52.170;5.386;2022-12-07T06:51:38;14.10;48.20
70807;DHT22;58882;52.170;5.386;2022-12-07T06:54:25;14.10;48.00
70807;DHT22;58882;52.170;5.386;2022-12-07T06:57:05;14.20;47.80
70807;DHT22;58882;52.170;5.386;2022-12-07T06:59:52;14.20;47.60
70807;DHT22;58882;52.170;5.386;2022-12-07T07:02:32;14.20;47.50
70807;DHT22;58882;52.170;5.386;2022-12-07T07:05:26;14.30;47.30
70807;DHT22;58882;52.170;5.386;2022-12-07T07:08:06;14.30;47.20
70807;DHT22;58882;52.170;5.386;2022-12-07T07:11:02;14.40;47.10
70807;DHT22;58882;52.170;5.386;2022-12-07T07:13:36;14.40;47.00
70807;DHT22;58882;52.170;5.386;2022-12-07T07:16:30;14.50;47.00
70807;DHT22;58882;52.170;5.386;2022-12-07T07:19:04;14.50;46.90
70807;DHT22;58882;52.170;5.386;2022-12-07T07:21:58;14.50;46.90
70807;DHT22;58882;52.170;5.386;2022-12-07T07:24:45;14.50;46.80
70807;DHT22;58882;52.170;5.386;2022-12-07T07:27:39;14.50;46.80
70807;DHT22;58882;52.170;5.386;2022-12-07T07:30:19;14.50;46.60
70807;DHT22;58882;52.170;5.386;2022-12-07T07:33:06;14.60;46.80
70807;DHT22;58882;52.170;5.386;2022-12-07T07:35:46;14.60;46.80
70807;DHT22;58882;52.170;5.386;2022-12-07T07:38:40;14.60;46.70
70807;DHT22;58882;52.170;5.386;2022-12-07T07:41:13;14.70;46.70
70807;DHT22;58882;52.170;5.386;2022-12-07T07:44:09;14.70;46.60
70807;DHT22;58882;52.170;5.386;2022-12-07T07:46:49;14.70;46.50
70807;DHT22;58882;52.170;5.386;2022-12-07T07:49:36;14.70;46.40
70807;DHT22;58882;52.170;5.386;2022-12-07T07:52:20;14.70;46.30
70807;DHT22;58882;52.170;5.386;2022-12-07T07:55:14;14.80;46.30
70807;DHT22;58882;52.170;5.386;2022-12-07T07:57:47;14.80;46.20
70807;DHT22;58882;52.170;5.386;2022-12-07T08:00:41;14.80;46.10
70807;DHT22;58882;52.170;5.386;2022-12-07T08:03:14;14.80;46.00
70807;DHT22;58882;52.170;5.386;2022-12-07T08:06:08;14.90;46.00
70807;DHT22;58882;52.170;5.386;2022-12-07T08:08:41;14.90;46.00
70807;DHT22;58882;52.170;5.386;2022-12-07T08:11:35;14.90;45.90
70807;DHT22;58882;52.170;5.386;2022-12-07T08:14:15;14.90;45.80
70807;DHT22;58882;52.170;5.386;2022-12-07T08:17:02;14.90;45.80
70807;DHT22;58882;52.170;5.386;2022-12-07T08:19:42;14.90;45.60
70807;DHT22;58882;52.170;5.386;2022-12-07T08:22:36;15.00;45.70
70807;DHT22;58882;52.170;5.386;2022-12-07T08:25:09;15.00;45.60
70807;DHT22;58882;52.170;5.386;2022-12-07T08:28:03;15.00;45.50
70807;DHT22;58882;52.170;5.386;2022-12-07T08:30:43;15.10;45.50
70807;DHT22;58882;52.170;5.386;2022-12-07T08:33:30;15.10;45.40
70807;DHT22;58882;52.170;5.386;2022-12-07T08:36:05;15.10;45.30
70807;DHT22;58882;52.170;5.386;2022-12-07T08:39:00;15.20;45.20
70807;DHT22;58882;52.170;5.386;2022-12-07T08:42:00;15.20;45.20
70807;DHT22;58882;52.170;5.386;2022-12-07T08:44:47;15.20;45.20
70807;DHT22;58882;52.170;5.386;2022-12-07T08:47:28;15.30;45.00
70807;DHT22;58882;52.170;5.386;2022-12-07T08:50:22;15.30;44.90
70807;DHT22;58882;52.170;5.386;2022-12-07T08:53:04;15.30;44.80
70807;DHT22;58882;52.170;5.386;2022-12-07T08:55:52;15.40;44.80
70807;DHT22;58882;52.170;5.386;2022-12-07T08:58:33;15.40;44.70
70807;DHT22;58882;52.170;5.386;2022-12-07T09:01:28;15.50;44.60
70807;DHT22;58882;52.170;5.386;2022-12-07T09:04:08;15.50;44.50
70807;DHT22;58882;52.170;5.386;2022-12-07T09:06:55;15.50;44.50
70807;DHT22;58882;52.170;5.386;2022-12-07T09:09:29;15.60;44.30
70807;DHT22;58882;52.170;5.386;2022-12-07T09:12:23;15.70;44.40
70807;DHT22;58882;52.170;5.386;2022-12-07T09:15:03;15.70;44.30
70807;DHT22;58882;52.170;5.386;2022-12-07T09:17:58;15.70;44.10
70807;DHT22;58882;52.170;5.386;2022-12-07T09:20:31;15.70;44.10
70807;DHT22;58882;52.170;5.386;2022-12-07T09:23:25;15.80;44.10
70807;DHT22;58882;52.170;5.386;2022-12-07T09:26:05;15.90;44.50
70807;DHT22;58882;52.170;5.386;2022-12-07T09:28:52;16.10;44.20
70807;DHT22;58882;52.170;5.386;2022-12-07T09:31:25;16.30;43.50
70807;DHT22;58882;52.170;5.386;2022-12-07T09:34:19;16.40;43.00
70807;DHT22;58882;52.170;5.386;2022-12-07T09:36:53;16.50;42.90
70807;DHT22;58882;52.170;5.386;2022-12-07T09:39:47;16.60;43.00
70807;DHT22;58882;52.170;5.386;2022-12-07T09:42:34;16.60;42.80
70807;DHT22;58882;52.170;5.386;2022-12-07T09:45:33;16.60;42.70
70807;DHT22;58882;52.170;5.386;2022-12-07T09:48:29;16.60;42.60
70807;DHT22;58882;52.170;5.386;2022-12-07T09:51:22;16.60;42.60
70807;DHT22;58882;52.170;5.386;2022-12-07T09:53:58;16.60;42.50
70807;DHT22;58882;52.170;5.386;2022-12-07T09:56:53;16.70;43.50
70807;DHT22;58882;52.170;5.386;2022-12-07T09:59:33;16.70;42.40
70807;DHT22;58882;52.170;5.386;2022-12-07T10:02:36;16.70;42.40
70807;DHT22;58882;52.170;5.386;2022-12-07T10:05:42;16.70;42.20
70807;DHT22;58882;52.170;5.386;2022-12-07T10:08:38;16.80;42.20
70807;DHT22;58882;52.170;5.386;2022-12-07T10:11:11;16.80;43.20
70807;DHT22;58882;52.170;5.386;2022-12-07T10:14:13;16.90;42.20
70807;DHT22;58882;52.170;5.386;2022-12-07T10:17:30;16.90;41.90
70807;DHT22;58882;52.170;5.386;2022-12-07T10:20:24;17.00;42.00
70807;DHT22;58882;52.170;5.386;2022-12-07T10:23:04;17.10;41.90
70807;DHT22;58882;52.170;5.386;2022-12-07T10:25:58;17.20;41.80
70807;DHT22;58882;52.170;5.386;2022-12-07T10:28:35;17.20;41.40
70807;DHT22;58882;52.170;5.386;2022-12-07T10:31:29;17.30;41.20
70807;DHT22;58882;52.170;5.386;2022-12-07T10:34:03;17.30;41.20
70807;DHT22;58882;52.170;5.386;2022-12-07T10:39:57;17.30;41.10
70807;DHT22;58882;52.170;5.386;2022-12-07T10:42:43;17.30;42.10
70807;DHT22;58882;52.170;5.386;2022-12-07T10:46:49;17.30;41.20
70807;DHT22;58882;52.170;5.386;2022-12-07T10:52:16;17.30;41.10
70807;DHT22;58882;52.170;5.386;2022-12-07T10:55:31;17.30;41.10
70807;DHT22;58882;52.170;5.386;2022-12-07T11:05:24;17.30;41.00
70807;DHT22;58882;52.170;5.386;2022-12-07T11:10:54;17.40;41.00
70807;DHT22;58882;52.170;5.386;2022-12-07T11:23:42;17.50;40.70
70807;DHT22;58882;52.170;5.386;2022-12-07T11:30:18;17.50;40.60
70807;DHT22;58882;52.170;5.386;2022-12-07T11:36:31;17.50;40.70
70807;DHT22;58882;52.170;5.386;2022-12-07T11:39:33;17.40;40.70
70807;DHT22;58882;52.170;5.386;2022-12-07T11:42:22;17.40;40.60
70807;DHT22;58882;52.170;5.386;2022-12-07T11:45:28;17.40;40.70
70807;DHT22;58882;52.170;5.386;2022-12-07T11:48:25;17.40;40.70
70807;DHT22;58882;52.170;5.386;2022-12-07T11:51:18;17.40;40.70
70807;DHT22;58882;52.170;5.386;2022-12-07T11:54:38;17.40;40.70
70807;DHT22;58882;52.170;5.386;2022-12-07T11:57:43;17.40;40.80
70807;DHT22;58882;52.170;5.386;2022-12-07T12:00:24;17.40;40.70
70807;DHT22;58882;52.170;5.386;2022-12-07T12:03:16;17.40;40.90
70807;DHT22;58882;52.170;5.386;2022-12-07T12:06:00;17.40;40.90
70807;DHT22;58882;52.170;5.386;2022-12-07T12:18:23;17.40;41.00
70807;DHT22;58882;52.170;5.386;2022-12-07T12:21:29;17.50;41.00
70807;DHT22;58882;52.170;5.386;2022-12-07T12:24:22;17.50;41.00
70807;DHT22;58882;52.170;5.386;2022-12-07T12:27:30;17.50;40.90
70807;DHT22;58882;52.170;5.386;2022-12-07T12:30:07;17.50;40.90
70807;DHT22;58882;52.170;5.386;2022-12-07T12:33:28;17.60;41.00
70807;DHT22;58882;52.170;5.386;2022-12-07T12:39:12;17.60;41.90
70807;DHT22;58882;52.170;5.386;2022-12-07T12:41:57;17.60;40.90
70807;DHT22;58882;52.170;5.386;2022-12-07T12:45:25;17.60;40.90
70807;DHT22;58882;52.170;5.386;2022-12-07T12:48:01;17.70;41.00
70807;DHT22;58882;52.170;5.386;2022-12-07T12:51:38;17.70;42.00
70807;DHT22;58882;52.170;5.386;2022-12-07T12:57:23;17.70;40.90
70807;DHT22;58882;52.170;5.386;2022-12-07T13:00:16;17.70;40.80
70807;DHT22;58882;52.170;5.386;2022-12-07T13:03:28;17.70;40.80
70807;DHT22;58882;52.170;5.386;2022-12-07T13:09:29;17.60;40.60
70807;DHT22;58882;52.170;5.386;2022-12-07T13:12:16;17.60;40.50
70807;DHT22;58882;52.170;5.386;2022-12-07T13:15:03;17.70;40.30
70807;DHT22;58882;52.170;5.386;2022-12-07T13:20:43;17.80;40.50
70807;DHT22;58882;52.170;5.386;2022-12-07T13:24:06;17.80;41.60
70807;DHT22;58882;52.170;5.386;2022-12-07T13:26:37;17.80;42.50
70807;DHT22;58882;52.170;5.386;2022-12-07T13:29:20;17.80;42.30
70807;DHT22;58882;52.170;5.386;2022-12-07T13:32:28;17.80;44.20
70807;DHT22;58882;52.170;5.386;2022-12-07T13:35:45;17.80;47.00
70807;DHT22;58882;52.170;5.386;2022-12-07T13:38:33;17.80;48.20
70807;DHT22;58882;52.170;5.386;2022-12-07T13:41:17;17.70;49.20
70807;DHT22;58882;52.170;5.386;2022-12-07T13:44:14;17.70;50.30
70807;DHT22;58882;52.170;5.386;2022-12-07T13:49:53;17.50;51.70
70807;DHT22;58882;52.170;5.386;2022-12-07T13:52:29;17.40;52.70
70807;DHT22;58882;52.170;5.386;2022-12-07T13:55:23;17.40;53.10
70807;DHT22;58882;52.170;5.386;2022-12-07T13:57:56;17.30;53.70
70807;DHT22;58882;52.170;5.386;2022-12-07T14:00:50;17.20;53.90
70807;DHT22;58882;52.170;5.386;2022-12-07T14:03:34;17.20;54.50
70807;DHT22;58882;52.170;5.386;2022-12-07T14:06:25;17.20;54.00
70807;DHT22;58882;52.170;5.386;2022-12-07T14:09:08;17.10;54.20
70807;DHT22;58882;52.170;5.386;2022-12-07T14:11:56;17.10;54.80
70807;DHT22;58882;52.170;5.386;2022-12-07T14:14:37;17.00;54.50
70807;DHT22;58882;52.170;5.386;2022-12-07T14:17:26;17.00;54.30
70807;DHT22;58882;52.170;5.386;2022-12-07T14:23:27;17.00;55.20
70807;DHT22;58882;52.170;5.386;2022-12-07T14:26:21;17.00;55.30
70807;DHT22;58882;52.170;5.386;2022-12-07T14:37:54;16.90;56.30
70807;DHT22;58882;52.170;5.386;2022-12-07T14:40:34;16.90;57.00
70807;DHT22;58882;52.170;5.386;2022-12-07T14:43:28;16.90;56.00
70807;DHT22;58882;52.170;5.386;2022-12-07T14:46:14;16.90;54.30
70807;DHT22;58882;52.170;5.386;2022-12-07T14:49:01;16.80;54.10
70807;DHT22;58882;52.170;5.386;2022-12-07T14:52:01;16.80;53.40
70807;DHT22;58882;52.170;5.386;2022-12-07T14:55:34;16.80;52.90
70807;DHT22;58882;52.170;5.386;2022-12-07T14:58:15;16.80;52.30
70807;DHT22;58882;52.170;5.386;2022-12-07T15:01:03;16.80;52.00
70807;DHT22;58882;52.170;5.386;2022-12-07T15:03:36;16.80;52.70
70807;DHT22;58882;52.170;5.386;2022-12-07T15:06:30;16.80;52.10
70807;DHT22;58882;52.170;5.386;2022-12-07T15:09:03;16.80;52.70
70807;DHT22;58882;52.170;5.386;2022-12-07T15:11:58;16.80;52.00
70807;DHT22;58882;52.170;5.386;2022-12-07T15:14:38;16.80;51.50
70807;DHT22;58882;52.170;5.386;2022-12-07T15:17:31;16.80;51.30
70807;DHT22;58882;52.170;5.386;2022-12-07T15:20:07;16.80;51.30
70807;DHT22;58882;52.170;5.386;2022-12-07T15:23:04;16.80;50.90
70807;DHT22;58882;52.170;5.386;2022-12-07T15:25:40;16.80;51.30
70807;DHT22;58882;52.170;5.386;2022-12-07T15:28:34;16.80;51.20
70807;DHT22;58882;52.170;5.386;2022-12-07T15:31:28;16.80;50.90
70807;DHT22;58882;52.170;5.386;2022-12-07T15:34:21;16.80;50.80
70807;DHT22;58882;52.170;5.386;2022-12-07T15:37:05;16.80;50.70
70807;DHT22;58882;52.170;5.386;2022-12-07T15:39:53;16.80;50.70
70807;DHT22;58882;52.170;5.386;2022-12-07T15:42:40;16.80;50.60
70807;DHT22;58882;52.170;5.386;2022-12-07T15:45:34;16.80;50.50
70807;DHT22;58882;52.170;5.386;2022-12-07T15:48:07;16.80;50.50
70807;DHT22;58882;52.170;5.386;2022-12-07T15:51:09;16.80;50.40
70807;DHT22;58882;52.170;5.386;2022-12-07T15:53:57;16.80;50.50
70807;DHT22;58882;52.170;5.386;2022-12-07T15:56:45;16.80;50.40
70807;DHT22;58882;52.170;5.386;2022-12-07T15:59:26;16.80;50.40
70807;DHT22;58882;52.170;5.386;2022-12-07T16:02:14;16.80;50.40
70807;DHT22;58882;52.170;5.386;2022-12-07T16:04:47;16.80;50.30
70807;DHT22;58882;52.170;5.386;2022-12-07T16:07:40;16.80;50.30
70807;DHT22;58882;52.170;5.386;2022-12-07T16:10:35;16.80;50.20
70807;DHT22;58882;52.170;5.386;2022-12-07T16:13:16;16.80;50.10
70807;DHT22;58882;52.170;5.386;2022-12-07T16:16:10;16.80;50.30
70807;DHT22;58882;52.170;5.386;2022-12-07T16:18:51;16.70;50.20
70807;DHT22;58882;52.170;5.386;2022-12-07T16:21:38;16.70;50.20
70807;DHT22;58882;52.170;5.386;2022-12-07T16:24:24;16.70;50.20
70807;DHT22;58882;52.170;5.386;2022-12-07T16:27:19;16.80;50.30
70807;DHT22;58882;52.170;5.386;2022-12-07T16:29:59;16.70;50.20
70807;DHT22;58882;52.170;5.386;2022-12-07T16:32:46;16.70;51.20
70807;DHT22;58882;52.170;5.386;2022-12-07T16:35:33;16.70;50.20
70807;DHT22;58882;52.170;5.386;2022-12-07T16:38:24;16.70;50.20
70807;DHT22;58882;52.170;5.386;2022-12-07T16:41:05;16.70;50.20
70807;DHT22;58882;52.170;5.386;2022-12-07T16:43:52;16.70;50.20
70807;DHT22;58882;52.170;5.386;2022-12-07T16:46:33;16.70;50.30
70807;DHT22;58882;52.170;5.386;2022-12-07T16:49:21;16.70;50.30
70807;DHT22;58882;52.170;5.386;2022-12-07T16:52:01;16.70;50.30
70807;DHT22;58882;52.170;5.386;2022-12-07T16:55:00;16.70;50.30
70807;DHT22;58882;52.170;5.386;2022-12-07T16:57:40;16.70;50.30
70807;DHT22;58882;52.170;5.386;2022-12-07T17:00:34;16.70;50.30
70807;DHT22;58882;52.170;5.386;2022-12-07T17:03:14;16.70;50.20
70807;DHT22;58882;52.170;5.386;2022-12-07T17:06:01;16.70;50.20
70807;DHT22;58882;52.170;5.386;2022-12-07T17:08:42;16.60;50.50
70807;DHT22;58882;52.170;5.386;2022-12-07T17:11:29;16.60;50.30
70807;DHT22;58882;52.170;5.386;2022-12-07T17:14:11;16.60;50.30
70807;DHT22;58882;52.170;5.386;2022-12-07T17:17:24;16.60;51.20
70807;DHT22;58882;52.170;5.386;2022-12-07T17:19:57;16.60;50.30
70807;DHT22;58882;52.170;5.386;2022-12-07T17:22:37;16.60;50.40
70807;DHT22;58882;52.170;5.386;2022-12-07T17:25:24;16.60;50.60
70807;DHT22;58882;52.170;5.386;2022-12-07T17:28:04;16.60;50.60
70807;DHT22;58882;52.170;5.386;2022-12-07T17:30:51;16.60;50.50
70807;DHT22;58882;52.170;5.386;2022-12-07T17:33:32;16.60;50.50
70807;DHT22;58882;52.170;5.386;2022-12-07T17:36:24;16.60;50.50
70807;DHT22;58882;52.170;5.386;2022-12-07T17:39:09;16.60;50.50
70807;DHT22;58882;52.170;5.386;2022-12-07T17:41:57;16.60;50.50
70807;DHT22;58882;52.170;5.386;2022-12-07T17:44:56;16.60;50.60
70807;DHT22;58882;52.170;5.386;2022-12-07T17:47:43;16.60;50.50
70807;DHT22;58882;52.170;5.386;2022-12-07T17:50:23;16.60;50.50
70807;DHT22;58882;52.170;5.386;2022-12-07T17:53:35;16.60;50.60
70807;DHT22;58882;52.170;5.386;2022-12-07T17:56:15;16.60;50.70
70807;DHT22;58882;52.170;5.386;2022-12-07T17:59:09;16.60;50.80
70807;DHT22;58882;52.170;5.386;2022-12-07T18:01:43;16.50;50.70
70807;DHT22;58882;52.170;5.386;2022-12-07T18:04:37;16.60;50.70
70807;DHT22;58882;52.170;5.386;2022-12-07T18:07:31;16.50;50.70
70807;DHT22;58882;52.170;5.386;2022-12-07T18:10:25;16.50;50.50
70807;DHT22;58882;52.170;5.386;2022-12-07T18:13:05;16.50;50.50
70807;DHT22;58882;52.170;5.386;2022-12-07T18:16:16;16.50;50.50
70807;DHT22;58882;52.170;5.386;2022-12-07T18:19:01;16.50;50.40
70807;DHT22;58882;52.170;5.386;2022-12-07T18:21:50;16.50;50.40
70807;DHT22;58882;52.170;5.386;2022-12-07T18:24:37;16.50;50.40
70807;DHT22;58882;52.170;5.386;2022-12-07T18:27:18;16.50;50.50
70807;DHT22;58882;52.170;5.386;2022-12-07T18:30:05;16.50;50.50
70807;DHT22;58882;52.170;5.386;2022-12-07T18:32:46;16.50;50.50
70807;DHT22;58882;52.170;5.386;2022-12-07T18:35:33;16.50;50.50
70807;DHT22;58882;52.170;5.386;2022-12-07T18:38:13;16.50;50.50
70807;DHT22;58882;52.170;5.386;2022-12-07T18:41:12;16.50;50.50
70807;DHT22;58882;52.170;5.386;2022-12-07T18:43:54;16.50;50.50
70807;DHT22;58882;52.170;5.386;2022-12-07T18:46:41;16.50;50.60
70807;DHT22;58882;52.170;5.386;2022-12-07T18:49:21;16.40;50.90
70807;DHT22;58882;52.170;5.386;2022-12-07T18:52:15;16.40;50.90
70807;DHT22;58882;52.170;5.386;2022-12-07T18:54:48;16.30;51.00
70807;DHT22;58882;52.170;5.386;2022-12-07T18:57:42;16.30;51.10
70807;DHT22;58882;52.170;5.386;2022-12-07T19:00:15;16.20;51.20
70807;DHT22;58882;52.170;5.386;2022-12-07T19:03:09;16.20;51.30
70807;DHT22;58882;52.170;5.386;2022-12-07T19:05:49;16.20;51.50
70807;DHT22;58882;52.170;5.386;2022-12-07T19:08:44;16.10;51.40
70807;DHT22;58882;52.170;5.386;2022-12-07T19:11:29;16.10;51.50
70807;DHT22;58882;52.170;5.386;2022-12-07T19:14:35;16.10;51.60
70807;DHT22;58882;52.170;5.386;2022-12-07T19:17:16;16.00;51.60
70807;DHT22;58882;52.170;5.386;2022-12-07T19:20:04;16.00;51.60